Time;durP1;ratioP1;P1;durP2;ratioP2;P2;SDS_P1;SDS_P2;PMS_P1;PMS_P2;Temp;Humidity;BMP_temperature;BMP_pressure;BME280_temperature;BME280_humidity;BME280_pressure;Samples;Min_cycle;Max_cycle;Signal;HPM_P1;HPM_P2
2022/07/28 00:01:59;;;;;;;;;3.33;1.00;;;;;24.05;31.31;101274.00;5078418;27;45850;-66
2022/07/28 00:04:25;;;;;;;;;1.67;1.67;;;;;24.05;31.53;101281.34;5092760;27;45655;-66
2022/07/28 00:06:50;;;;;;;;;2.00;2.00;;;;;24.01;31.76;101276.16;5077749;27;46220;-67
2022/07/28 00:09:15;;;;;;;;;4.00;2.00;;;;;23.97;31.96;101271.97;5077914;27;45535;-67
2022/07/28 00:11:41;;;;;;;;;2.67;2.67;;;;;23.94;31.99;101274.13;5078388;27;45827;-67
2022/07/28 00:14:06;;;;;;;;;1.00;1.00;;;;;23.93;31.53;101278.72;5078655;27;45535;-81
2022/07/28 00:16:31;;;;;;;;;1.67;1.67;;;;;23.94;31.48;101271.41;5082301;27;47594;-80
2022/07/28 00:18:57;;;;;;;;;4.00;2.00;;;;;23.92;31.97;101266.09;5087818;27;45520;-80
2022/07/28 00:21:23;;;;;;;;;2.00;2.00;;;;;23.84;32.21;101244.19;5078067;27;45424;-81
2022/07/28 00:23:48;;;;;;;;;1.67;1.67;;;;;23.89;31.66;101250.06;5078484;27;45562;-81
2022/07/28 00:26:14;;;;;;;;;4.33;2.00;;;;;23.89;32.03;101265.53;5077577;27;45573;-81
2022/07/28 00:28:39;;;;;;;;;2.00;2.00;;;;;23.88;32.28;101258.34;5078015;27;45430;-81
2022/07/28 00:31:05;;;;;;;;;2.00;2.00;;;;;23.85;32.28;101251.34;5078054;27;45601;-81
2022/07/28 00:33:30;;;;;;;;;2.00;2.00;;;;;23.83;32.41;101239.72;5078018;27;45494;-81
2022/07/28 00:35:56;;;;;;;;;2.00;2.00;;;;;23.79;31.95;101239.16;5102605;27;46245;-81
2022/07/28 00:38:21;;;;;;;;;3.00;1.00;;;;;23.77;32.25;101235.72;5112955;27;45411;-81
2022/07/28 00:43:31;;;;;;;;;2.00;2.00;;;;;23.65;32.08;101223.19;5102964;27;45483;-80
2022/07/28 00:45:57;;;;;;;;;2.00;2.00;;;;;23.63;32.61;101222.47;5084754;27;45773;-80
2022/07/28 00:48:22;;;;;;;;;2.00;2.00;;;;;23.66;32.58;101230.34;5065570;27;45481;-80
2022/07/28 00:50:47;;;;;;;;;1.33;1.33;;;;;23.66;32.63;101233.06;5098221;27;45370;-80
2022/07/28 00:53:13;;;;;;;;;2.00;2.00;;;;;23.64;32.48;101229.63;5110976;27;45541;-80
2022/07/28 00:55:40;;;;;;;;;1.00;1.00;;;;;23.57;32.84;101228.47;5097726;27;47490;-80
2022/07/28 00:58:06;;;;;;;;;1.33;1.33;;;;;23.60;32.42;101230.94;5097499;27;45408;-80
2022/07/28 01:00:31;;;;;;;;;3.00;1.67;;;;;23.57;32.48;101223.88;5092013;27;45541;-80
2022/07/28 01:02:57;;;;;;;;;1.00;1.00;;;;;23.56;32.30;101219.44;5089778;27;45513;-80
2022/07/28 01:05:25;;;;;;;;;2.00;2.00;;;;;23.48;32.99;101207.53;5079099;27;46088;-81
2022/07/28 01:08:16;;;;;;;;;2.00;2.00;;;;;23.50;32.42;101216.44;5086886;27;45400;-81
2022/07/28 01:11:00;;;;;;;;;2.00;2.00;;;;;23.48;32.88;101219.28;5110297;27;45593;-81
2022/07/28 01:13:41;;;;;;;;;3.00;2.00;;;;;23.46;32.47;101209.53;5084105;27;45509;-67
2022/07/28 01:16:07;;;;;;;;;1.33;1.33;;;;;23.39;33.02;101201.09;5077079;27;46297;-67
2022/07/28 01:18:43;;;;;;;;;2.67;2.67;;;;;23.46;32.69;101214.97;5091231;27;45486;-67
2022/07/28 01:21:15;;;;;;;;;3.00;2.00;;;;;23.44;32.73;101208.84;5090475;27;45513;-67
2022/07/28 01:23:52;;;;;;;;;6.00;4.67;;;;;23.43;33.09;101209.81;5091496;27;45580;-67
2022/07/28 01:26:44;;;;;;;;;6.00;2.00;;;;;23.41;33.07;101212.66;5084451;27;45635;-67
2022/07/28 01:29:25;;;;;;;;;2.67;2.67;;;;;23.39;33.10;101214.69;5082798;27;45474;-67
2022/07/28 01:31:57;;;;;;;;;2.00;2.00;;;;;23.39;33.20;101214.69;5079131;27;45501;-67
2022/07/28 01:34:35;;;;;;;;;1.00;1.00;;;;;23.34;33.23;101209.66;5097444;27;45422;-67
2022/07/28 01:37:08;;;;;;;;;2.33;2.33;;;;;23.27;33.23;101202.19;5097231;27;45570;-67
2022/07/28 01:39:36;;;;;;;;;2.33;2.33;;;;;23.25;32.84;101198.72;5079166;27;45515;-67
2022/07/28 01:42:05;;;;;;;;;2.00;0.33;;;;;23.29;33.36;101211.91;5097130;27;45551;-67
2022/07/28 01:44:33;;;;;;;;;1.67;1.67;;;;;23.25;32.83;101207.78;5107401;27;45457;-67
2022/07/28 01:47:00;;;;;;;;;1.00;1.00;;;;;23.23;33.09;101208.91;5085494;27;46320;-67
2022/07/28 01:49:28;;;;;;;;;2.00;2.00;;;;;23.22;33.27;101207.19;5082357;27;45479;-67
2022/07/28 01:51:56;;;;;;;;;1.67;1.67;;;;;23.20;33.44;101207.31;5089777;27;45526;-67
2022/07/28 01:54:26;;;;;;;;;2.00;1.00;;;;;23.17;33.12;101200.28;5077072;27;45389;-67
2022/07/28 01:56:53;;;;;;;;;1.00;1.00;;;;;23.17;33.53;101200.28;5082229;27;47146;-66
2022/07/28 01:59:20;;;;;;;;;2.67;1.00;;;;;23.16;33.66;101197.72;5096669;27;45500;-66
2022/07/28 02:01:47;;;;;;;;;2.00;2.00;;;;;23.16;33.75;101200.44;5082450;27;45425;-67
2022/07/28 02:04:17;;;;;;;;;1.00;1.00;;;;;23.10;33.65;101190.09;5096954;27;45522;-67
2022/07/28 02:06:44;;;;;;;;;1.00;1.00;;;;;23.08;33.74;101183.94;5078784;27;46280;-67
2022/07/28 02:09:11;;;;;;;;;1.67;1.67;;;;;23.13;33.55;101189.81;5096385;27;45405;-67
2022/07/28 02:11:39;;;;;;;;;2.33;1.00;;;;;23.14;33.40;101186.97;5096549;27;45495;-66
2022/07/28 02:14:17;;;;;;;;;1.00;1.00;;;;;23.14;33.26;101180.69;5097325;27;45346;-80
2022/07/28 02:16:53;;;;;;;;;1.00;1.00;;;;;23.14;33.71;101186.13;5096213;27;45489;-80
2022/07/28 02:19:20;;;;;;;;;1.00;1.00;;;;;23.12;33.48;101188.13;5096744;27;45533;-81
2022/07/28 02:21:48;;;;;;;;;1.00;1.00;;;;;22.93;33.60;101151.66;5082132;27;45785;-80
2022/07/28 02:24:21;;;;;;;;;1.00;1.00;;;;;23.08;33.39;101175.78;5096767;27;45402;-80
2022/07/28 02:26:50;;;;;;;;;1.00;1.00;;;;;23.05;34.05;101170.63;5096027;27;46193;-80
2022/07/28 02:29:21;;;;;;;;;2.00;0.67;;;;;23.04;34.15;101166.16;5096365;27;45442;-80
2022/07/28 02:31:52;;;;;;;;;1.00;1.00;;;;;23.03;33.74;101168.03;5096453;27;45475;-80
2022/07/28 02:34:21;;;;;;;;;1.00;1.00;;;;;23.02;33.77;101168.19;5078314;27;45437;-80
2022/07/28 02:36:53;;;;;;;;;1.33;1.33;;;;;22.96;33.67;101166.84;5096186;27;45436;-81
2022/07/28 02:39:25;;;;;;;;;2.00;2.00;;;;;22.94;34.37;101164.28;5081697;27;45592;-80
2022/07/28 02:42:03;;;;;;;;;1.00;1.00;;;;;22.94;33.96;101158.84;5096392;27;45455;-80
2022/07/28 02:44:37;;;;;;;;;2.00;2.00;;;;;22.89;34.24;101154.78;5108194;27;45527;-80
2022/07/28 02:47:07;;;;;;;;;3.00;2.67;;;;;22.85;34.03;101147.91;5078297;27;45500;-80
2022/07/28 02:49:34;;;;;;;;;3.00;2.00;;;;;22.88;34.56;101150.38;5081695;27;45333;-80
2022/07/28 02:52:02;;;;;;;;;1.00;1.00;;;;;22.88;34.65;101153.09;5096400;27;45884;-80
2022/07/28 02:54:31;;;;;;;;;1.67;1.67;;;;;22.92;34.67;101160.84;5081755;27;45594;-80
2022/07/28 02:56:58;;;;;;;;;2.00;0.00;;;;;22.91;34.14;101160.97;5095730;27;46920;-80
2022/07/28 02:59:25;;;;;;;;;1.00;1.00;;;;;22.90;34.14;101168.25;5077790;27;45565;-80
2022/07/28 03:01:51;;;;;;;;;1.33;1.33;;;;;22.78;34.36;101147.63;5095891;27;45437;-81
2022/07/28 03:04:55;;;;;;;;;2.33;0.33;;;;;22.88;34.65;101166.69;5084768;27;45475;-81
2022/07/28 03:07:04;;;;;;;;;3.00;1.00;;;;;22.89;34.47;101161.09;5081175;27;45920;-80
2022/07/28 03:09:30;;;;;;;;;2.00;2.00;;;;;22.83;34.14;101153.50;5095613;27;45456;-80
2022/07/28 03:11:56;;;;;;;;;1.00;1.00;;;;;22.87;34.12;101160.34;5095955;27;45707;-80
2022/07/28 03:14:21;;;;;;;;;3.00;1.00;;;;;22.85;34.15;101153.34;5096541;27;45312;-80
2022/07/28 03:16:46;;;;;;;;;1.33;1.00;;;;;22.86;34.66;101161.38;5077279;27;46072;-80
2022/07/28 03:19:12;;;;;;;;;2.00;2.00;;;;;22.87;34.68;101156.78;5087517;27;45391;-80
2022/07/28 03:21:40;;;;;;;;;1.00;1.00;;;;;22.85;34.57;101173.25;5089646;27;45316;-80
2022/07/28 03:24:06;;;;;;;;;1.67;1.00;;;;;22.84;34.40;101174.22;5096150;27;45558;-80
2022/07/28 03:26:43;;;;;;;;;1.00;1.00;;;;;22.84;34.57;101168.78;5083029;27;46214;-80
2022/07/28 03:29:09;;;;;;;;;1.00;1.00;;;;;22.84;34.28;101163.34;5089542;27;45461;-80
2022/07/28 03:31:38;;;;;;;;;1.00;1.00;;;;;22.74;34.39;101148.88;5091356;27;45264;-80
2022/07/28 03:34:04;;;;;;;;;1.00;1.00;;;;;22.81;34.74;101163.63;5099358;27;45504;-80
2022/07/28 03:36:38;;;;;;;;;1.33;1.00;;;;;22.80;34.17;101155.59;5099123;27;46028;-80
2022/07/28 03:39:08;;;;;;;;;2.00;2.00;;;;;22.81;34.44;101162.78;5084660;27;45414;-80
2022/07/28 03:41:35;;;;;;;;;1.00;1.00;;;;;22.81;34.60;101157.34;5099095;27;45527;-80
2022/07/28 03:44:01;;;;;;;;;2.67;1.00;;;;;22.80;34.63;101151.03;5110297;27;45450;-80
2022/07/28 03:46:27;;;;;;;;;0.00;0.00;;;;;22.80;34.31;101158.31;5099597;27;46465;-80
2022/07/28 03:48:53;;;;;;;;;3.00;1.00;;;;;22.79;34.97;101153.91;5099086;27;45518;-80
2022/07/28 03:51:19;;;;;;;;;1.00;0.00;;;;;22.76;34.86;101155.03;5080432;27;45466;-80
2022/07/28 03:53:45;;;;;;;;;1.00;1.00;;;;;22.70;34.71;101144.69;5099153;27;45562;-80
2022/07/28 03:56:11;;;;;;;;;1.00;1.00;;;;;22.73;34.89;101147.13;5080246;27;48353;-80
2022/07/28 03:58:36;;;;;;;;;0.00;0.00;;;;;22.75;34.79;101161.44;5098749;27;45497;-80
2022/07/28 04:01:02;;;;;;;;;1.00;1.00;;;;;22.73;34.91;101156.19;5098971;27;45442;-80
2022/07/28 04:03:29;;;;;;;;;1.00;1.00;;;;;22.72;34.91;101168.03;5099209;27;45445;-80
2022/07/28 04:05:55;;;;;;;;;0.00;0.00;;;;;22.71;34.96;101154.56;5087767;27;45600;-80
2022/07/28 04:08:20;;;;;;;;;1.00;1.00;;;;;22.68;34.93;101161.13;5094979;27;45391;-81
2022/07/28 04:10:46;;;;;;;;;2.00;1.00;;;;;22.67;34.73;101164.84;5089955;27;45477;-81
2022/07/28 04:13:11;;;;;;;;;1.00;1.00;;;;;22.61;34.73;101159.09;5079366;27;45512;-81
2022/07/28 04:15:37;;;;;;;;;1.00;1.00;;;;;22.63;34.63;101157.09;5098420;27;47088;-81
2022/07/28 04:18:02;;;;;;;;;0.00;0.00;;;;;22.63;35.04;101157.09;5085772;27;45472;-81
2022/07/28 04:20:28;;;;;;;;;1.00;1.00;;;;;22.61;34.58;101161.81;5096782;27;45555;-81
2022/07/28 04:22:54;;;;;;;;;1.00;1.00;;;;;22.61;34.63;101159.94;5098717;27;45455;-81
2022/07/28 04:25:22;;;;;;;;;1.33;1.00;;;;;22.62;34.73;101163.56;5098592;27;45450;-81
2022/07/28 04:27:48;;;;;;;;;1.00;1.00;;;;;22.61;35.14;101156.38;5080087;27;45488;-81
2022/07/28 04:30:20;;;;;;;;;1.00;1.00;;;;;22.59;35.03;101153.78;5080011;27;45479;-81
2022/07/28 04:32:47;;;;;;;;;1.00;1.00;;;;;22.60;35.00;101160.09;5091021;27;45396;-81
2022/07/28 04:35:13;;;;;;;;;1.00;1.00;;;;;22.53;34.96;101147.06;5091558;27;45991;-81
2022/07/28 04:37:39;;;;;;;;;1.00;1.00;;;;;22.55;35.08;101155.94;5083482;27;45478;-81
2022/07/28 04:40:08;;;;;;;;;0.00;0.00;;;;;22.59;34.73;101161.09;5098314;27;45474;-81
2022/07/28 04:42:35;;;;;;;;;1.00;1.00;;;;;22.59;34.76;101153.78;5096644;27;45481;-81
2022/07/28 04:45:00;;;;;;;;;2.00;2.00;;;;;22.59;34.81;101147.50;5110534;27;46119;-81
2022/07/28 04:47:27;;;;;;;;;1.00;1.00;;;;;22.52;35.27;101137.19;5098220;27;45497;-81
2022/07/28 04:49:53;;;;;;;;;1.00;1.00;;;;;22.56;35.06;101145.91;5079883;27;45497;-81
2022/07/28 04:52:19;;;;;;;;;3.00;2.33;;;;;22.47;34.92;101123.13;5098241;27;45680;-81
2022/07/28 04:54:44;;;;;;;;;1.00;1.00;;;;;22.54;35.60;101143.31;5097912;27;47101;-81
2022/07/28 04:57:10;;;;;;;;;2.33;1.00;;;;;22.48;35.44;101134.88;5097702;27;45312;-81
2022/07/28 04:59:36;;;;;;;;;0.33;0.33;;;;;22.47;35.55;101135.84;5078929;27;45417;-81
2022/07/28 05:02:01;;;;;;;;;1.00;1.00;;;;;22.54;35.59;101145.19;5063075;28;45527;-81
2022/07/28 05:04:27;;;;;;;;;3.67;2.00;;;;;22.52;35.21;101149.91;5090007;27;46333;-81
2022/07/28 05:06:53;;;;;;;;;5.00;2.00;;;;;22.52;35.71;101145.34;5078552;27;45356;-81
2022/07/28 05:09:19;;;;;;;;;1.33;1.33;;;;;22.48;35.48;101143.88;5088343;27;45392;-81
2022/07/28 05:11:44;;;;;;;;;2.00;2.00;;;;;22.53;34.99;101157.91;5079689;27;45655;-81
2022/07/28 05:14:10;;;;;;;;;2.00;2.00;;;;;22.52;35.12;101155.31;5097951;27;46485;-81
2022/07/28 05:16:36;;;;;;;;;1.00;1.00;;;;;22.53;35.23;101151.63;5097379;27;45431;-81
2022/07/28 05:19:02;;;;;;;;;4.00;2.00;;;;;22.48;35.46;101141.16;5097637;27;45660;-81
2022/07/28 05:21:27;;;;;;;;;3.00;1.00;;;;;22.57;35.29;101149.50;5084978;27;45536;-81
2022/07/28 05:23:53;;;;;;;;;2.00;2.00;;;;;22.59;35.64;101153.78;5095760;27;45466;-81
2022/07/28 05:26:18;;;;;;;;;1.33;1.00;;;;;22.60;35.50;101154.69;5086927;27;45567;-81
2022/07/28 05:28:43;;;;;;;;;1.00;1.00;;;;;22.60;35.52;101154.69;5075753;27;45548;-81
2022/07/28 05:31:09;;;;;;;;;1.00;1.00;;;;;22.61;35.45;101150.94;5097939;27;45723;-81
2022/07/28 05:33:35;;;;;;;;;2.67;1.00;;;;;22.60;35.53;101155.53;5096883;27;46272;-81
2022/07/28 05:36:02;;;;;;;;;1.00;1.00;;;;;22.53;35.70;101140.75;5097379;27;45471;-81
2022/07/28 05:38:29;;;;;;;;;3.00;1.00;;;;;22.62;35.79;101152.69;5094970;27;45505;-80
2022/07/28 05:40:55;;;;;;;;;2.00;2.00;;;;;22.64;35.69;101153.38;5094187;27;45414;-74
2022/07/28 05:43:20;;;;;;;;;1.00;1.00;;;;;22.65;35.24;101147.81;5098247;27;46594;-75
2022/07/28 05:45:46;;;;;;;;;3.00;1.00;;;;;22.69;35.56;101149.28;5096369;27;45477;-78
2022/07/28 05:48:11;;;;;;;;;2.00;2.00;;;;;22.63;35.75;101135.38;5095969;27;45371;-78
2022/07/28 05:50:37;;;;;;;;;1.67;1.67;;;;;22.70;35.35;101145.56;5102958;27;45450;-78
2022/07/28 05:53:03;;;;;;;;;1.67;1.00;;;;;22.71;35.41;101144.56;5097468;27;47208;-78
2022/07/28 05:55:29;;;;;;;;;2.33;1.33;;;;;22.65;35.20;101128.81;5095598;27;45438;-78
2022/07/28 05:57:54;;;;;;;;;3.00;1.67;;;;;22.67;35.29;101134.97;5095125;27;45466;-78
2022/07/28 06:00:22;;;;;;;;;2.00;2.00;;;;;22.73;35.98;101142.59;5096323;27;45481;-79
2022/07/28 06:02:49;;;;;;;;;7.00;4.00;;;;;22.76;35.44;101141.44;5095170;27;46567;-79
2022/07/28 06:05:16;;;;;;;;;52.67;39.33;;;;;22.81;35.43;101141.03;5094781;27;45469;-78
2022/07/28 06:07:42;;;;;;;;;5.00;5.00;;;;;22.84;35.33;101135.31;5095366;27;45509;-78
2022/07/28 06:10:08;;;;;;;;;2.00;2.00;;;;;22.87;35.82;101140.47;5095250;27;45620;-78
2022/07/28 06:12:45;;;;;;;;;3.00;3.00;;;;;22.89;35.68;101143.91;5095587;27;46611;-68
2022/07/28 06:15:16;;;;;;;;;2.00;2.00;;;;;22.92;35.09;101147.25;5094607;27;45488;-68
2022/07/28 06:17:42;;;;;;;;;1.33;1.33;;;;;22.92;34.99;101147.25;5095039;27;45543;-68
2022/07/28 06:20:08;;;;;;;;;1.33;1.33;;;;;22.95;34.97;101149.66;5095042;27;45518;-68
2022/07/28 06:22:47;;;;;;;;;3.33;1.00;;;;;22.94;35.08;101144.38;5095452;27;46511;-68
2022/07/28 06:25:27;;;;;;;;;1.00;1.00;;;;;23.01;35.04;101152.88;5094699;27;45726;-68
2022/07/28 06:27:54;;;;;;;;;2.00;2.00;;;;;23.06;35.33;101148.75;5095625;27;45448;-68
2022/07/28 06:30:20;;;;;;;;;2.00;2.00;;;;;23.08;35.20;101149.44;5094914;27;45465;-69
2022/07/28 06:32:47;;;;;;;;;2.00;2.00;;;;;23.06;35.20;101148.75;5095074;27;47451;-68
2022/07/28 06:35:15;;;;;;;;;2.00;2.00;;;;;23.08;34.86;101144.00;5095224;27;45441;-68
2022/07/28 06:37:41;;;;;;;;;2.00;2.00;;;;;23.13;35.06;101154.47;5081512;27;45522;-68
2022/07/28 06:40:07;;;;;;;;;2.67;2.67;;;;;23.11;34.63;101137.47;5095536;27;45532;-68
2022/07/28 06:42:33;;;;;;;;;3.67;2.00;;;;;23.20;35.22;101152.06;5094220;27;45956;-68
2022/07/28 06:44:58;;;;;;;;;2.00;2.00;;;;;23.23;34.72;101154.53;5098583;27;45462;-68
2022/07/28 06:47:23;;;;;;;;;2.00;2.00;;;;;23.26;34.51;101149.66;5095748;27;45501;-68
2022/07/28 06:49:49;;;;;;;;;1.00;1.00;;;;;23.33;34.66;101148.09;5095709;27;45426;-68
2022/07/28 06:52:16;;;;;;;;;2.00;2.00;;;;;23.40;34.65;101159.28;5076865;27;46191;-68
2022/07/28 06:54:41;;;;;;;;;2.00;2.00;;;;;23.33;34.78;101144.50;5090929;27;45706;-69
2022/07/28 06:57:08;;;;;;;;;1.00;1.00;;;;;23.03;35.53;101154.44;5084557;27;47761;-69
2022/07/28 06:59:33;;;;;;;;;2.00;2.00;;;;;22.89;35.59;101144.78;5076493;27;45455;-69
2022/07/28 07:02:00;;;;;;;;;3.00;3.00;;;;;22.87;36.08;101148.63;5089682;27;45992;-69
2022/07/28 07:04:29;;;;;;;;;3.67;2.00;;;;;22.78;35.86;101147.63;5068567;27;45643;-69
2022/07/28 07:06:55;;;;;;;;;2.00;2.00;;;;;22.64;36.27;101151.56;5088305;27;45427;-68
2022/07/28 07:09:20;;;;;;;;;2.33;2.33;;;;;22.58;36.32;101148.50;5094065;27;45470;-68
2022/07/28 07:11:45;;;;;;;;;3.33;1.33;;;;;22.54;35.91;101159.63;5092787;27;46179;-69
2022/07/28 07:14:11;;;;;;;;;3.00;2.00;;;;;22.52;36.56;101164.38;5076456;27;45348;-73
2022/07/28 07:16:36;;;;;;;;;2.00;2.00;;;;;22.38;36.28;101166.53;5071778;27;45717;-73
2022/07/28 07:19:02;;;;;;;;;2.67;2.00;;;;;22.32;36.95;101165.22;5089443;27;45626;-73
2022/07/28 07:21:27;;;;;;;;;54.67;41.67;;;;;22.47;37.20;101174.75;5086469;27;47594;-73
2022/07/28 07:23:52;;;;;;;;;9.33;8.67;;;;;22.67;37.15;101169.44;5077504;27;45454;-73
2022/07/28 07:26:18;;;;;;;;;5.00;5.00;;;;;22.89;37.15;101154.78;5075373;27;45481;-73
2022/07/28 07:28:43;;;;;;;;;7.00;6.00;;;;;23.21;36.51;101160.09;5088225;27;45452;-73
2022/07/28 07:31:09;;;;;;;;;8.00;6.67;;;;;23.29;36.68;101143.06;5085538;27;46145;-73
2022/07/28 07:33:34;;;;;;;;;5.00;4.00;;;;;23.39;35.61;101136.66;5067211;27;45478;-73
2022/07/28 07:35:59;;;;;;;;;3.33;3.00;;;;;23.70;35.83;101161.03;5077579;27;45565;-73
2022/07/28 07:38:25;;;;;;;;;4.00;4.00;;;;;23.80;36.13;101167.38;5076131;27;45715;-73
2022/07/28 07:40:50;;;;;;;;;3.00;3.00;;;;;23.84;34.92;101151.63;5076058;27;46344;-74
2022/07/28 07:43:16;;;;;;;;;4.33;3.00;;;;;23.95;35.04;101165.09;5060947;27;46772;-74
2022/07/28 07:45:42;;;;;;;;;3.00;3.00;;;;;23.98;35.02;101162.06;5094941;27;45592;-73
2022/07/28 07:48:07;;;;;;;;;3.00;3.00;;;;;24.02;34.97;101159.91;5094910;27;45454;-73
2022/07/28 07:50:33;;;;;;;;;4.00;4.00;;;;;24.09;35.25;101161.06;5094790;27;46853;-73
2022/07/28 07:52:59;;;;;;;;;3.00;3.00;;;;;24.18;34.48;101159.31;5094251;27;45473;-73
2022/07/28 07:55:25;;;;;;;;;3.00;3.00;;;;;24.21;34.83;101135.38;5094784;27;45492;-74
2022/07/28 07:57:50;;;;;;;;;2.00;2.00;;;;;24.41;34.31;101146.22;5094468;27;45419;-74
2022/07/28 08:00:16;;;;;;;;;3.00;3.00;;;;;24.55;35.97;101151.25;5094173;27;46960;-74
2022/07/28 08:02:42;;;;;;;;;3.00;3.00;;;;;24.68;35.11;101150.94;5094687;27;45434;-74
2022/07/28 08:05:08;;;;;;;;;5.00;4.00;;;;;24.80;34.38;101146.13;5094430;27;45664;-74
2022/07/28 08:07:34;;;;;;;;;8.00;6.00;;;;;24.75;33.71;101143.88;5076281;27;45468;-71
2022/07/28 08:09:59;;;;;;;;;5.00;4.00;;;;;24.85;33.40;101146.53;5087736;27;47107;-71
2022/07/28 08:12:24;;;;;;;;;3.00;3.00;;;;;24.91;33.69;101136.88;5094146;27;45572;-72
2022/07/28 08:14:50;;;;;;;;;4.00;4.00;;;;;24.94;34.12;101144.78;5094686;27;45465;-69
2022/07/28 08:17:15;;;;;;;;;3.00;1.00;;;;;24.95;33.80;101136.44;5098013;27;45405;-71
2022/07/28 08:19:40;;;;;;;;;2.00;2.00;;;;;25.09;33.88;101143.25;5079345;27;46156;-68
2022/07/28 08:22:06;;;;;;;;;4.00;3.00;;;;;25.23;33.36;101145.50;5097650;27;45543;-71
2022/07/28 08:24:31;;;;;;;;;3.00;3.00;;;;;25.38;34.00;101142.25;5098008;27;46682;-70
2022/07/28 08:26:56;;;;;;;;;4.00;2.00;;;;;25.55;32.98;101140.56;5097702;27;45347;-71
2022/07/28 08:29:22;;;;;;;;;3.00;3.00;;;;;25.60;32.93;101132.78;5079619;27;45836;-71
2022/07/28 08:31:47;;;;;;;;;3.00;3.00;;;;;25.73;32.67;101135.97;5097795;27;45446;-71
2022/07/28 08:34:13;;;;;;;;;3.00;3.00;;;;;25.70;33.13;101128.06;5063435;28;45488;-72
2022/07/28 08:36:38;;;;;;;;;2.00;2.00;;;;;25.57;31.98;101135.81;5091106;27;45371;-71
2022/07/28 08:39:04;;;;;;;;;3.00;3.00;;;;;25.47;33.04;101123.09;5097064;27;46436;-70
2022/07/28 08:41:35;;;;;;;;;3.33;3.33;;;;;25.69;33.59;101135.41;5097031;27;45445;-70
2022/07/28 08:44:02;;;;;;;;;4.00;4.00;;;;;25.62;32.42;101104.28;5100513;27;45593;-71
2022/07/28 08:46:34;;;;;;;;;23.67;20.67;;;;;25.72;31.86;101130.66;5097546;27;45597;-72
2022/07/28 08:49:04;;;;;;;;;10.67;10.00;;;;;26.00;33.37;101123.25;5097308;27;46251;-71
2022/07/28 08:51:30;;;;;;;;;5.33;5.33;;;;;26.46;32.25;101129.41;5095302;27;45460;-70
2022/07/28 08:53:56;;;;;;;;;10.00;8.67;;;;;26.69;32.07;101125.13;5097395;27;45387;-70
2022/07/28 08:56:23;;;;;;;;;9.67;9.33;;;;;27.31;31.02;101124.84;5097596;27;45554;-70
2022/07/28 08:58:49;;;;;;;;;10.00;8.67;;;;;27.69;32.08;101124.41;5096695;27;50958;-70
2022/07/28 09:01:15;;;;;;;;;3.33;3.33;;;;;29.04;28.94;101120.94;5097236;27;45502;-70
2022/07/28 09:03:41;;;;;;;;;4.00;4.00;;;;;31.78;25.74;101117.00;5096378;27;45484;-70
2022/07/28 09:06:07;;;;;;;;;4.00;4.00;;;;;33.46;22.75;101098.50;5097656;27;45829;-70
2022/07/28 09:08:32;;;;;;;;;9.67;8.00;;;;;34.70;23.51;101113.63;5096961;27;47132;-70
2022/07/28 09:10:57;;;;;;;;;6.33;4.00;;;;;35.69;20.67;101096.56;5097028;27;45715;-70
2022/07/28 09:13:23;;;;;;;;;4.33;4.33;;;;;36.85;19.76;101115.56;5097224;27;45604;-71
2022/07/28 09:15:49;;;;;;;;;2.67;2.67;;;;;37.01;18.80;101117.69;5097483;27;45475;-70
2022/07/28 09:18:16;;;;;;;;;5.67;4.00;;;;;37.93;19.40;101100.78;5096893;27;45601;-71
2022/07/28 09:20:42;;;;;;;;;4.00;4.00;;;;;38.47;17.52;101123.00;5097025;27;45466;-70
2022/07/28 09:23:09;;;;;;;;;4.00;4.00;;;;;39.40;16.79;101117.44;5096757;27;45426;-70
2022/07/28 09:25:34;;;;;;;;;3.00;3.00;;;;;40.19;16.49;101117.44;5097010;27;45480;-71
2022/07/28 09:28:08;;;;;;;;;4.67;4.67;;;;;40.98;16.60;101124.75;5096342;27;45653;-71
2022/07/28 09:30:36;;;;;;;;;7.33;6.00;;;;;41.48;16.98;101120.00;5096661;27;45534;-71
2022/07/28 09:33:19;;;;;;;;;5.00;5.00;;;;;41.55;16.88;101120.66;5096764;27;45541;-71
2022/07/28 09:35:52;;;;;;;;;4.00;4.00;;;;;41.08;15.30;101113.66;5076818;27;45490;-71
2022/07/28 09:38:20;;;;;;;;;4.00;4.00;;;;;40.59;16.31;101119.16;5084807;27;46309;-71
2022/07/28 09:40:59;;;;;;;;;2.67;2.33;;;;;40.08;17.12;101104.41;5093806;27;45487;-71
2022/07/28 09:43:32;;;;;;;;;7.00;3.67;;;;;40.33;17.44;101109.59;5100230;27;45483;-70
2022/07/28 09:46:15;;;;;;;;;4.33;4.33;;;;;40.74;16.93;101112.13;5096903;27;45518;-72
2022/07/28 09:48:49;;;;;;;;;6.33;5.00;;;;;40.75;17.34;101114.66;5096463;27;46350;-71
2022/07/28 09:51:21;;;;;;;;;2.00;2.00;;;;;39.91;16.67;101106.38;5096239;27;45679;-71
2022/07/28 09:53:46;;;;;;;;;3.00;3.00;;;;;38.90;17.39;101113.34;5096235;27;45479;-71
2022/07/28 09:56:13;;;;;;;;;6.67;2.00;;;;;38.62;19.30;101109.41;5090151;27;45486;-71
2022/07/28 09:58:39;;;;;;;;;5.67;4.67;;;;;38.73;19.01;101102.13;5081648;27;46415;-71
2022/07/28 10:01:09;;;;;;;;;4.00;4.00;;;;;39.85;18.98;101100.72;5089859;27;45794;-72
2022/07/28 10:03:36;;;;;;;;;5.00;5.00;;;;;40.74;18.07;101085.00;5089269;27;45440;-72
2022/07/28 10:06:06;;;;;;;;;6.33;6.33;;;;;41.88;16.70;101091.53;5083732;27;45471;-72
2022/07/28 10:08:47;;;;;;;;;3.00;3.00;;;;;42.36;16.87;101095.28;5077704;27;45553;-73
2022/07/28 10:11:14;;;;;;;;;4.33;4.33;;;;;41.28;16.14;101079.53;5091035;27;45546;-72
2022/07/28 10:14:01;;;;;;;;;6.00;3.00;;;;;39.38;18.03;101086.16;5091179;27;45522;-73
2022/07/28 10:16:42;;;;;;;;;4.67;4.67;;;;;39.15;18.72;101089.88;5070409;27;45590;-73
2022/07/28 10:19:07;;;;;;;;;3.67;3.67;;;;;40.17;17.89;101088.91;5074763;27;47481;-72
2022/07/28 10:21:39;;;;;;;;;3.33;3.33;;;;;39.89;18.65;101071.16;5080160;27;45474;-73
2022/07/28 10:24:06;;;;;;;;;3.67;3.67;;;;;39.93;18.10;101084.63;5077901;27;45477;-73
2022/07/28 10:26:37;;;;;;;;;4.00;2.67;;;;;39.48;18.26;101089.16;5086113;27;45428;-73
2022/07/28 10:29:07;;;;;;;;;3.00;3.00;;;;;39.05;19.37;101090.53;5062790;28;47110;-73
2022/07/28 10:31:34;;;;;;;;;4.00;3.00;;;;;38.43;20.44;101083.59;5092693;27;45475;-72
2022/07/28 10:34:02;;;;;;;;;5.00;3.33;;;;;37.51;21.28;101078.53;5095884;27;45761;-72
2022/07/28 10:36:30;;;;;;;;;6.00;4.67;;;;;36.46;21.54;101073.25;5082726;27;45479;-73
2022/07/28 10:39:02;;;;;;;;;5.00;5.00;;;;;35.91;21.65;101073.97;5077463;27;46298;-72
2022/07/28 10:41:33;;;;;;;;;4.67;4.67;;;;;36.34;21.88;101081.50;5078445;27;45477;-74
2022/07/28 10:43:59;;;;;;;;;1.00;1.00;;;;;36.76;18.86;101078.88;5098655;27;45458;-73
2022/07/28 10:46:25;;;;;;;;;1.67;1.67;;;;;37.15;17.83;101077.53;5077049;27;46022;-73
2022/07/28 10:48:51;;;;;;;;;2.67;2.67;;;;;37.61;19.67;101079.91;5095357;27;47383;-74
2022/07/28 10:51:19;;;;;;;;;5.67;4.00;;;;;37.63;20.27;101070.25;5095207;27;45592;-75
2022/07/28 10:54:01;;;;;;;;;1.33;1.33;;;;;37.30;19.40;101060.44;5094927;27;45593;-75
2022/07/28 10:56:33;;;;;;;;;2.00;2.00;;;;;37.13;20.57;101063.03;5095691;27;45634;-74
2022/07/28 10:59:10;;;;;;;;;3.67;2.00;;;;;36.79;21.41;101075.66;5094996;27;45685;-73
2022/07/28 11:01:37;;;;;;;;;3.67;3.67;;;;;36.20;21.19;101066.91;5088905;27;45531;-73
2022/07/28 11:04:04;;;;;;;;;2.67;1.00;;;;;35.66;21.69;101063.75;5084608;27;45418;-73
2022/07/28 11:06:33;;;;;;;;;2.67;2.00;;;;;35.12;23.04;101062.34;5095492;27;45381;-73
2022/07/28 11:09:16;;;;;;;;;2.67;2.67;;;;;34.70;22.65;101064.66;5094537;27;47587;-73
2022/07/28 11:11:48;;;;;;;;;2.67;2.67;;;;;34.39;23.44;101054.28;5091198;27;45423;-73
2022/07/28 11:14:28;;;;;;;;;2.33;2.33;;;;;34.54;23.21;101067.88;5095609;27;45477;-73
2022/07/28 11:16:59;;;;;;;;;4.00;1.00;;;;;34.57;23.14;101064.69;5095321;27;45432;-74
2022/07/28 11:19:28;;;;;;;;;4.00;3.67;;;;;34.74;22.69;101070.59;5094753;27;46413;-73
2022/07/28 11:25:03;;;;;;;;;4.33;4.00;;;;;35.25;22.26;101053.97;5095419;27;46064;-73
2022/07/28 11:27:40;;;;;;;;;5.33;5.33;;;;;35.22;22.49;101056.34;5083227;27;45559;-73
2022/07/28 11:30:07;;;;;;;;;7.33;5.67;;;;;35.43;21.65;101055.13;5094677;27;47038;-73
2022/07/28 11:32:59;;;;;;;;;5.00;5.00;;;;;35.24;22.36;101052.28;5090415;27;45946;-73
2022/07/28 11:35:29;;;;;;;;;8.00;6.00;;;;;35.22;21.69;101048.88;5080932;27;45884;-73